Time;durP1;ratioP1;P1;durP2;ratioP2;P2;SDS_P1;SDS_P2;PMS_P1;PMS_P2;Temp;Humidity;BMP_temperature;BMP_pressure;BME280_temperature;BME280_humidity;BME280_pressure;Samples;Min_cycle;Max_cycle;Signal;HPM_P1;HPM_P2
2023/03/29 00:01:55;;;;;;;6.80;2.37;;;;;;;1.58;90.61;101551.66;5033650;28;21002;-65
2023/03/29 00:04:22;;;;;;;7.07;2.07;;;;;;;1.60;91.21;101548.78;5033609;28;20995;-65
2023/03/29 00:06:49;;;;;;;7.93;3.20;;;;;;;1.73;90.58;101543.31;5033938;28;20538;-64
2023/03/29 00:09:18;;;;;;;6.30;2.07;;;;;;;1.80;89.79;101541.41;5033939;28;20808;-66
2023/03/29 00:11:45;;;;;;;8.20;2.40;;;;;;;1.85;89.39;101538.88;5033674;28;20519;-65
2023/03/29 00:14:12;;;;;;;8.10;2.47;;;;;;;1.89;89.59;101539.28;5033798;28;20525;-65
2023/03/29 00:16:39;;;;;;;12.63;2.00;;;;;;;1.95;88.76;101535.75;5033756;28;20443;-65
2023/03/29 00:19:06;;;;;;;8.63;2.60;;;;;;;1.98;89.60;101535.28;5033653;28;20458;-66
2023/03/29 00:21:32;;;;;;;7.90;2.20;;;;;;;1.97;90.15;101537.13;5033649;28;20550;-65
2023/03/29 00:23:59;;;;;;;8.03;2.40;;;;;;;2.01;90.02;101532.19;5033311;28;20451;-65
2023/03/29 00:26:27;;;;;;;6.83;1.90;;;;;;;2.04;90.53;101537.09;5033256;28;20932;-65
2023/03/29 00:28:53;;;;;;;10.83;3.00;;;;;;;2.13;91.77;101530.41;5033563;28;20451;-64
2023/03/29 00:31:20;;;;;;;6.30;1.90;;;;;;;2.24;91.76;101524.31;5032919;28;20495;-65
2023/03/29 00:33:47;;;;;;;6.23;1.70;;;;;;;2.37;92.62;101527.88;5033076;28;20458;-65
2023/03/29 00:36:14;;;;;;;8.17;2.37;;;;;;;2.48;92.75;101521.81;5032978;28;20447;-65
2023/03/29 00:38:41;;;;;;;7.37;1.90;;;;;;;2.63;92.84;101524.91;5033056;28;20451;-65
2023/03/29 00:41:09;;;;;;;8.00;2.20;;;;;;;2.75;93.16;101523.09;5033256;28;20494;-65
2023/03/29 00:43:54;;;;;;;8.73;1.80;;;;;;;2.91;92.41;101510.94;5033005;28;20443;-66
2023/03/29 00:46:21;;;;;;;6.77;1.93;;;;;;;3.00;91.95;101512.25;5033296;28;20427;-65
2023/03/29 00:48:49;;;;;;;7.50;1.80;;;;;;;3.08;91.65;101513.78;5034722;28;20483;-65
2023/03/29 00:51:18;;;;;;;6.60;1.90;;;;;;;3.11;91.76;101508.00;5033123;28;20474;-64
2023/03/29 00:53:48;;;;;;;5.33;1.60;;;;;;;3.19;91.17;101510.34;5032936;28;20890;-65
2023/03/29 00:56:20;;;;;;;7.37;1.80;;;;;;;3.21;91.05;101508.25;5033185;28;20428;-65
2023/03/29 00:58:52;;;;;;;7.60;1.60;;;;;;;3.29;90.44;101507.94;5032844;28;20431;-65
2023/03/29 01:01:27;;;;;;;6.43;1.90;;;;;;;3.29;89.93;101504.44;5033083;28;20554;-65
2023/03/29 01:03:59;;;;;;;7.13;2.50;;;;;;;3.33;88.90;101499.44;5032907;28;20438;-65
2023/03/29 01:06:28;;;;;;;5.97;1.43;;;;;;;3.25;86.70;101492.56;5032839;28;20428;-65
2023/03/29 01:08:57;;;;;;;5.17;1.50;;;;;;;3.33;86.26;101488.72;5034224;28;20443;-65
2023/03/29 01:11:27;;;;;;;10.43;2.20;;;;;;;3.27;85.38;101485.91;5037031;28;20463;-64
2023/03/29 01:13:58;;;;;;;7.47;1.57;;;;;;;3.29;85.68;101478.47;5036770;28;20439;-64
2023/03/29 01:16:29;;;;;;;6.57;1.97;;;;;;;3.33;85.38;101478.03;5037146;28;20429;-65
2023/03/29 01:18:57;;;;;;;11.17;2.53;;;;;;;3.39;85.58;101477.91;5037085;28;20439;-65
2023/03/29 01:21:31;;;;;;;8.20;1.70;;;;;;;3.49;85.13;101472.78;5036650;28;20456;-64
2023/03/29 01:24:25;;;;;;;5.60;1.60;;;;;;;3.56;84.99;101455.81;5037034;28;20544;-65
2023/03/29 01:26:59;;;;;;;17.53;2.47;;;;;;;3.51;84.61;101462.66;5030595;28;20470;-65
2023/03/29 01:29:33;;;;;;;14.70;1.87;;;;;;;3.52;84.19;101442.88;5036597;28;20460;-65
2023/03/29 01:32:07;;;;;;;5.63;1.60;;;;;;;3.58;83.83;101443.78;5036462;28;20493;-63
2023/03/29 01:34:40;;;;;;;5.37;1.50;;;;;;;3.56;82.91;101435.19;5036511;28;20446;-63
2023/03/29 01:37:12;;;;;;;6.10;1.77;;;;;;;3.54;84.37;101431.91;5037182;28;20506;-64
2023/03/29 01:39:39;;;;;;;7.97;1.80;;;;;;;3.59;84.63;101431.25;5036816;28;20427;-65
2023/03/29 01:42:15;;;;;;;6.00;1.67;;;;;;;3.58;85.17;101433.06;5036549;28;20468;-65
2023/03/29 01:44:51;;;;;;;6.90;1.60;;;;;;;3.59;83.65;101432.06;5036809;28;20522;-65
2023/03/29 01:47:25;;;;;;;5.33;1.27;;;;;;;3.52;83.88;101421.44;5036719;28;20431;-65
2023/03/29 01:50:00;;;;;;;8.87;2.20;;;;;;;3.56;83.11;101421.78;5036679;28;20434;-65
2023/03/29 01:52:33;;;;;;;8.37;2.03;;;;;;;3.56;82.82;101424.47;5036636;28;20474;-65
2023/03/29 01:55:04;;;;;;;6.87;1.83;;;;;;;3.61;82.41;101418.41;5036554;28;20463;-65
2023/03/29 01:57:33;;;;;;;6.73;1.33;;;;;;;3.62;81.94;101410.13;5036547;28;20529;-64
2023/03/29 02:00:13;;;;;;;6.03;1.73;;;;;;;3.57;81.42;101410.03;5035952;28;20823;-64
2023/03/29 02:02:44;;;;;;;8.43;1.80;;;;;;;3.59;81.61;101401.78;5036379;28;20465;-65
2023/03/29 02:05:13;;;;;;;5.73;1.50;;;;;;;3.57;81.93;101402.00;5036762;28;20450;-65
2023/03/29 02:07:43;;;;;;;7.10;1.83;;;;;;;3.56;82.96;101403.03;5036248;28;20443;-65
2023/03/29 02:10:12;;;;;;;8.17;1.90;;;;;;;3.65;83.21;101398.16;5036163;28;20439;-65
2023/03/29 02:12:38;;;;;;;6.87;1.60;;;;;;;3.66;83.27;101397.09;5035703;28;20521;-65
2023/03/29 02:15:12;;;;;;;12.10;2.37;;;;;;;3.67;82.85;101391.50;5035751;28;20497;-65
2023/03/29 02:17:38;;;;;;;5.63;1.70;;;;;;;3.68;82.89;101382.41;5035745;28;21043;-65
2023/03/29 02:20:13;;;;;;;9.03;1.53;;;;;;;3.71;83.13;101384.63;5035062;28;20978;-64
2023/03/29 02:22:47;;;;;;;10.00;2.07;;;;;;;3.70;83.22;101376.81;5035948;28;20431;-65
2023/03/29 02:25:14;;;;;;;8.27;2.13;;;;;;;3.76;82.85;101370.50;5035898;28;20803;-65
2023/03/29 02:27:41;;;;;;;6.73;1.90;;;;;;;3.75;82.24;101367.03;5035910;28;20446;-67
2023/03/29 02:30:13;;;;;;;5.80;2.00;;;;;;;3.69;83.20;101359.94;5035553;28;20490;-66
2023/03/29 02:32:48;;;;;;;6.50;1.87;;;;;;;3.70;83.19;101355.38;5035411;28;20976;-63
2023/03/29 02:35:20;;;;;;;6.50;1.27;;;;;;;3.73;82.38;101361.09;5035667;28;20427;-63
2023/03/29 02:37:50;;;;;;;7.70;1.60;;;;;;;3.74;82.54;101357.34;5035774;28;20514;-62
2023/03/29 02:40:18;;;;;;;5.03;1.13;;;;;;;3.73;82.88;101345.03;5035327;28;20461;-63
2023/03/29 02:42:46;;;;;;;5.20;1.40;;;;;;;3.69;82.39;101351.91;5035562;28;20478;-63
2023/03/29 02:45:17;;;;;;;6.20;1.70;;;;;;;3.71;82.35;101349.78;5035444;28;20470;-64
2023/03/29 02:47:48;;;;;;;12.37;2.37;;;;;;;3.71;82.31;101343.63;5035396;28;20531;-63
2023/03/29 02:50:14;;;;;;;7.80;1.67;;;;;;;3.74;81.55;101343.97;5035216;28;20494;-63
2023/03/29 02:52:45;;;;;;;8.50;1.73;;;;;;;3.74;79.52;101343.97;5035279;28;20582;-63
2023/03/29 02:55:16;;;;;;;5.93;1.77;;;;;;;3.70;79.18;101332.09;5035244;28;20485;-63
2023/03/29 02:57:43;;;;;;;5.80;1.37;;;;;;;3.65;79.74;101334.66;5035548;28;20809;-63
2023/03/29 03:00:13;;;;;;;6.00;1.47;;;;;;;3.63;79.32;101322.53;5035116;28;20439;-63
2023/03/29 03:02:41;;;;;;;5.70;1.80;;;;;;;3.60;79.49;101317.69;5035150;28;20442;-63
2023/03/29 03:05:09;;;;;;;5.67;1.40;;;;;;;3.56;79.20;101317.34;5035127;28;20445;-63
2023/03/29 03:07:36;;;;;;;5.40;1.50;;;;;;;3.49;79.43;101317.44;5034799;28;20483;-63
2023/03/29 03:10:03;;;;;;;5.30;1.23;;;;;;;3.49;80.32;101320.13;5034584;28;20546;-62
2023/03/29 03:12:30;;;;;;;6.60;1.70;;;;;;;3.53;80.47;101318.59;5034882;28;20491;-63
2023/03/29 03:14:57;;;;;;;6.00;1.70;;;;;;;3.49;80.00;101311.28;5034630;28;20956;-63
2023/03/29 03:17:24;;;;;;;7.30;1.93;;;;;;;3.50;80.33;101313.75;5034859;28;20458;-63
2023/03/29 03:19:52;;;;;;;4.70;1.23;;;;;;;3.52;80.20;101311.63;5034836;28;20450;-63
2023/03/29 03:22:18;;;;;;;5.50;1.57;;;;;;;3.50;80.29;101312.94;5034708;28;20490;-63
2023/03/29 03:24:45;;;;;;;5.67;1.80;;;;;;;3.44;80.65;101308.50;5034383;28;20483;-63
2023/03/29 03:27:12;;;;;;;10.43;2.30;;;;;;;3.45;81.63;101305.59;5034343;28;20949;-63
2023/03/29 03:29:40;;;;;;;9.10;1.63;;;;;;;3.42;81.81;101298.03;5034345;28;20451;-63
2023/03/29 03:32:06;;;;;;;9.53;2.37;;;;;;;3.43;82.06;101293.50;5033172;28;20478;-63
2023/03/29 03:34:34;;;;;;;6.10;1.70;;;;;;;3.47;82.88;101291.97;5034429;28;20465;-63
2023/03/29 03:37:02;;;;;;;6.67;1.83;;;;;;;3.43;83.41;101296.97;5034578;28;20459;-64
2023/03/29 03:39:29;;;;;;;5.33;1.40;;;;;;;3.46;83.73;101285.00;5034184;28;20901;-63
2023/03/29 03:41:55;;;;;;;14.00;2.23;;;;;;;3.51;83.25;101291.25;5034298;28;20455;-63
2023/03/29 03:44:22;;;;;;;8.87;1.83;;;;;;;3.54;83.07;101289.97;5034099;28;21011;-63
2023/03/29 03:46:49;;;;;;;7.13;2.00;;;;;;;3.51;83.59;101293.94;5034331;28;20443;-63
2023/03/29 03:49:16;;;;;;;5.20;1.40;;;;;;;3.51;83.60;101290.44;5034303;28;20443;-63
2023/03/29 03:51:44;;;;;;;12.10;1.67;;;;;;;3.54;83.23;101293.47;5034099;28;20494;-63
2023/03/29 03:54:12;;;;;;;8.33;1.87;;;;;;;3.56;83.42;101290.56;5034091;28;20494;-63
2023/03/29 03:56:39;;;;;;;12.23;1.70;;;;;;;3.57;82.01;101289.50;5034250;28;20447;-63
2023/03/29 03:59:06;;;;;;;6.00;2.00;;;;;;;3.58;82.29;101292.97;5034204;28;20443;-63
2023/03/29 04:01:34;;;;;;;8.20;2.20;;;;;;;3.53;81.94;101282.97;5033594;28;20474;-63
2023/03/29 04:04:00;;;;;;;7.70;2.00;;;;;;;3.52;81.20;101289.41;5033995;28;20440;-63
2023/03/29 04:06:29;;;;;;;5.10;1.40;;;;;;;3.44;81.50;101281.72;5033910;28;20447;-63
2023/03/29 04:08:56;;;;;;;9.23;1.97;;;;;;;3.39;81.84;101285.09;5033953;28;20439;-63
2023/03/29 04:11:24;;;;;;;7.73;1.83;;;;;;;3.36;81.28;101282.91;5033758;28;20513;-63
2023/03/29 04:13:51;;;;;;;5.20;1.67;;;;;;;3.38;81.92;101277.31;5033525;28;20573;-65
2023/03/29 04:16:18;;;;;;;9.03;1.87;;;;;;;3.40;81.49;101285.91;5033810;28;20446;-63
2023/03/29 04:18:44;;;;;;;8.20;2.00;;;;;;;3.33;81.20;101274.53;5033619;28;20450;-63
2023/03/29 04:21:11;;;;;;;6.00;1.87;;;;;;;3.32;80.60;101272.88;5033598;28;20550;-63
2023/03/29 04:23:37;;;;;;;9.03;2.37;;;;;;;3.29;80.91;101277.69;5033684;28;20527;-63
2023/03/29 04:26:05;;;;;;;13.00;2.93;;;;;;;3.25;80.80;101276.53;5033605;28;20479;-63
2023/03/29 04:28:33;;;;;;;8.87;2.10;;;;;;;3.21;80.63;101277.22;5033373;28;20451;-63
2023/03/29 04:31:00;;;;;;;9.77;1.90;;;;;;;3.25;80.83;101268.50;5033217;28;20475;-64
2023/03/29 04:33:28;;;;;;;6.30;1.77;;;;;;;3.27;81.05;101271.72;5033473;28;20490;-63
2023/03/29 04:35:54;;;;;;;8.50;1.63;;;;;;;3.27;80.91;101269.06;5033184;28;20489;-63
2023/03/29 04:38:22;;;;;;;7.87;1.90;;;;;;;3.18;82.34;101267.78;5033437;28;20485;-63
2023/03/29 04:40:48;;;;;;;6.20;1.83;;;;;;;3.22;82.91;101274.31;5033077;28;20470;-63
2023/03/29 04:43:15;;;;;;;7.20;2.10;;;;;;;3.28;82.99;101268.03;5033048;28;20442;-63
2023/03/29 04:45:43;;;;;;;7.07;1.90;;;;;;;3.32;82.80;101270.22;5033329;28;20920;-64
2023/03/29 04:48:10;;;;;;;10.23;2.70;;;;;;;3.30;83.13;101273.13;5033252;28;20455;-63
2023/03/29 04:50:36;;;;;;;8.17;2.57;;;;;;;3.36;83.41;101269.50;5033188;28;20471;-64
2023/03/29 04:53:03;;;;;;;8.30;2.10;;;;;;;3.47;83.21;101257.16;5033093;28;20487;-64
2023/03/29 04:55:30;;;;;;;6.80;1.77;;;;;;;3.41;83.42;101253.56;5032880;28;20980;-63
2023/03/29 04:57:57;;;;;;;7.97;2.60;;;;;;;3.34;83.34;101266.25;5033209;28;20537;-63
2023/03/29 05:00:26;;;;;;;6.53;2.23;;;;;;;3.33;83.75;101253.13;5033131;28;20467;-63
2023/03/29 05:02:54;;;;;;;7.13;1.73;;;;;;;3.38;83.67;101258.56;5033351;28;20458;-67
2023/03/29 05:05:20;;;;;;;7.27;1.70;;;;;;;3.43;83.30;101253.31;5033163;28;20461;-67
2023/03/29 05:07:47;;;;;;;6.80;2.23;;;;;;;3.45;82.95;101251.22;5033108;28;20458;-64
2023/03/29 05:10:14;;;;;;;6.30;1.87;;;;;;;3.54;82.83;101255.97;5033126;28;20439;-66
2023/03/29 05:12:40;;;;;;;6.60;1.63;;;;;;;3.51;83.26;101256.44;5032678;28;21039;-65
2023/03/29 05:15:08;;;;;;;14.83;2.13;;;;;;;3.58;83.20;101250.94;5032731;28;20479;-64
2023/03/29 05:17:35;;;;;;;8.53;2.30;;;;;;;3.62;83.76;101245.94;5051648;28;20549;-64
2023/03/29 05:20:08;;;;;;;6.90;2.03;;;;;;;3.62;82.32;101251.28;5052460;28;20892;-63
2023/03/29 05:22:37;;;;;;;6.93;2.50;;;;;;;3.61;80.19;101245.13;5052743;28;20431;-64
2023/03/29 05:25:04;;;;;;;7.40;2.23;;;;;;;3.65;80.25;101251.63;5052841;28;20454;-64
2023/03/29 05:27:32;;;;;;;7.50;2.33;;;;;;;3.61;79.56;101250.47;5052921;28;20464;-65
2023/03/29 05:29:59;;;;;;;11.23;2.93;;;;;;;3.59;79.34;101246.44;5052543;28;20553;-65
2023/03/29 05:32:26;;;;;;;13.90;5.50;;;;;;;3.58;79.59;101240.22;5052882;28;20431;-64
2023/03/29 05:34:52;;;;;;;11.37;4.40;;;;;;;3.64;79.76;101250.00;5052749;28;20856;-65
2023/03/29 05:37:20;;;;;;;10.30;3.00;;;;;;;3.61;79.18;101245.13;5052709;28;20448;-65
2023/03/29 05:39:47;;;;;;;7.33;2.50;;;;;;;3.57;78.84;101243.97;5052747;28;20453;-65
2023/03/29 05:42:14;;;;;;;9.87;2.43;;;;;;;3.60;79.55;101237.31;5052630;28;20466;-65
2023/03/29 05:44:41;;;;;;;7.60;2.13;;;;;;;3.62;80.83;101238.69;5052771;28;20442;-65
2023/03/29 05:47:08;;;;;;;7.30;2.40;;;;;;;3.66;80.79;101236.38;5052358;28;20994;-66
2023/03/29 05:49:36;;;;;;;8.63;2.27;;;;;;;3.72;81.09;101238.91;5052725;28;20981;-65
2023/03/29 05:52:03;;;;;;;6.53;1.87;;;;;;;3.82;80.34;101232.13;5052567;28;20481;-67
2023/03/29 05:54:31;;;;;;;8.63;2.00;;;;;;;3.76;79.77;101236.53;5052643;28;20478;-67
2023/03/29 05:56:58;;;;;;;9.40;2.40;;;;;;;3.76;79.59;101236.53;5055302;28;20452;-64
2023/03/29 05:59:27;;;;;;;8.63;2.40;;;;;;;3.85;79.38;101235.13;5055955;28;21003;-64
2023/03/29 06:01:53;;;;;;;8.87;2.77;;;;;;;3.89;79.39;101240.81;5056003;28;20938;-64
2023/03/29 06:04:20;;;;;;;6.40;2.67;;;;;;;3.90;79.50;101240.59;5056258;28;20521;-64
2023/03/29 06:06:47;;;;;;;9.30;2.07;;;;;;;3.99;79.61;101238.34;5055984;28;20548;-64
2023/03/29 06:09:14;;;;;;;8.97;2.40;;;;;;;4.03;78.48;101234.13;5056256;28;20576;-65
2023/03/29 06:11:43;;;;;;;5.40;1.93;;;;;;;4.09;78.78;101232.34;5056096;28;20469;-65
2023/03/29 06:14:12;;;;;;;11.40;2.27;;;;;;;4.13;79.12;101241.53;5055988;28;20543;-64
2023/03/29 06:16:39;;;;;;;6.70;2.30;;;;;;;4.18;78.32;101228.19;5055850;28;20958;-64
2023/03/29 06:19:06;;;;;;;8.10;2.00;;;;;;;4.20;78.37;101232.25;5055647;28;20935;-65
2023/03/29 06:21:32;;;;;;;7.67;2.17;;;;;;;4.28;79.11;101228.34;5055832;28;20470;-64
2023/03/29 06:23:59;;;;;;;6.80;2.07;;;;;;;4.39;78.50;101230.16;5055862;28;20864;-64
2023/03/29 06:26:27;;;;;;;12.70;3.10;;;;;;;4.37;78.23;101231.44;5055890;28;20446;-66
2023/03/29 06:28:56;;;;;;;7.30;2.03;;;;;;;4.50;78.55;101226.56;5055578;28;20963;-66
2023/03/29 06:31:23;;;;;;;10.00;2.70;;;;;;;4.60;78.02;101219.72;5055483;28;20497;-63
2023/03/29 06:33:49;;;;;;;9.47;2.20;;;;;;;4.65;77.25;101217.13;5055341;28;20832;-64
2023/03/29 06:36:16;;;;;;;11.00;3.10;;;;;;;4.68;76.88;101217.44;5055312;28;20828;-64
2023/03/29 06:38:44;;;;;;;11.47;2.10;;;;;;;4.67;77.73;101212.34;5055615;28;20446;-64
2023/03/29 06:41:11;;;;;;;6.60;2.17;;;;;;;4.72;78.19;101218.59;5055094;28;20982;-63
2023/03/29 06:43:37;;;;;;;8.83;2.40;;;;;;;4.80;77.91;101210.13;5055566;28;20445;-64
2023/03/29 06:46:10;;;;;;;7.87;2.47;;;;;;;4.95;77.67;101216.75;5055498;28;20442;-64
2023/03/29 06:48:37;;;;;;;6.85;1.95;;;;;;;5.07;77.30;101220.16;5081881;22;20484;-70
2023/03/29 06:51:04;;;;;;;8.20;2.50;;;;;;;5.16;76.52;101215.16;5073779;28;20965;-69
2023/03/29 06:53:31;;;;;;;6.77;2.37;;;;;;;5.25;75.92;101214.47;5075341;28;20481;-70
2023/03/29 06:55:58;;;;;;;11.40;2.17;;;;;;;5.30;74.77;101216.41;5075445;28;20441;-69
2023/03/29 06:58:25;;;;;;;11.03;2.57;;;;;;;5.35;75.64;101215.66;5075346;28;20457;-70
2023/03/29 07:00:52;;;;;;;16.90;1.97;;;;;;;5.43;74.88;101216.03;5075252;28;20833;-70
2023/03/29 07:03:22;;;;;;;6.57;2.47;;;;;;;5.47;74.68;101225.19;5075233;28;20446;-71
2023/03/29 07:05:50;;;;;;;6.60;1.90;;;;;;;5.47;72.82;101219.03;5075235;28;20487;-70
2023/03/29 07:08:19;;;;;;;10.30;2.37;;;;;;;5.44;73.52;101224.88;5074966;28;20477;-70
2023/03/29 07:10:47;;;;;;;9.07;1.77;;;;;;;5.46;74.10;101228.16;5075126;28;20826;-70
2023/03/29 07:13:14;;;;;;;8.60;2.93;;;;;;;5.49;72.60;101224.94;5074573;28;21017;-70
2023/03/29 07:15:43;;;;;;;6.57;2.10;;;;;;;5.57;72.81;101224.50;5075281;28;20473;-70
2023/03/29 07:18:11;;;;;;;6.60;2.17;;;;;;;5.53;73.45;101218.84;5075590;28;20465;-70
2023/03/29 07:20:40;;;;;;;7.93;2.00;;;;;;;5.71;73.20;101224.91;5075252;28;20484;-70
2023/03/29 07:23:08;;;;;;;8.20;2.53;;;;;;;5.78;70.36;101218.28;5075285;28;20552;-71
2023/03/29 07:25:35;;;;;;;10.17;2.00;;;;;;;5.87;71.63;101215.16;5075278;28;20857;-69
2023/03/29 07:28:02;;;;;;;9.37;2.57;;;;;;;5.95;69.87;101214.72;5074794;28;20433;-69
2023/03/29 07:30:30;;;;;;;6.37;1.80;;;;;;;6.06;70.12;101217.28;5074670;28;20544;-70
2023/03/29 07:32:57;;;;;;;6.43;1.70;;;;;;;6.19;69.88;101223.28;5074614;28;20429;-70
2023/03/29 07:35:26;;;;;;;8.90;2.40;;;;;;;6.25;68.88;101217.69;5074566;28;20584;-70
2023/03/29 07:37:54;;;;;;;7.53;2.30;;;;;;;6.28;69.63;101209.09;5074287;28;20540;-70
2023/03/29 07:40:22;;;;;;;9.00;2.43;;;;;;;6.23;69.42;101219.81;5074436;28;20472;-70
2023/03/29 07:42:51;;;;;;;7.70;1.90;;;;;;;6.37;69.73;101214.00;5074476;28;20443;-70
2023/03/29 07:45:19;;;;;;;8.60;2.63;;;;;;;6.46;66.81;101209.75;5074494;28;20459;-70
2023/03/29 07:47:46;;;;;;;5.90;1.70;;;;;;;6.48;67.67;101207.63;5074044;28;20947;-70
2023/03/29 07:50:13;;;;;;;7.40;1.40;;;;;;;6.49;66.56;101210.06;5073851;28;20501;-70
2023/03/29 07:52:40;;;;;;;10.23;2.23;;;;;;;6.32;69.38;101210.19;5073978;28;20437;-70
2023/03/29 07:55:09;;;;;;;5.80;1.63;;;;;;;6.42;68.01;101214.88;5074153;28;20484;-71
2023/03/29 07:57:36;;;;;;;6.50;1.53;;;;;;;6.38;66.56;101219.16;5074322;28;20437;-70
2023/03/29 08:00:14;;;;;;;9.00;2.20;;;;;;;6.40;68.16;101211.63;5074102;28;20905;-70
2023/03/29 08:02:42;;;;;;;10.50;2.63;;;;;;;6.50;66.96;101216.25;5072936;28;20439;-70
2023/03/29 08:05:11;;;;;;;8.73;2.60;;;;;;;6.53;67.00;101211.16;5074047;28;20442;-70
2023/03/29 08:07:38;;;;;;;6.20;1.87;;;;;;;6.65;66.99;101215.56;5074049;28;20445;-70
2023/03/29 08:10:06;;;;;;;5.53;1.70;;;;;;;6.69;67.39;101213.97;5073858;28;20504;-69
2023/03/29 08:12:34;;;;;;;7.00;1.90;;;;;;;6.70;65.63;101216.41;5073644;28;20444;-71
2023/03/29 08:15:00;;;;;;;6.00;1.70;;;;;;;6.63;67.13;101206.94;5073838;28;20481;-71
2023/03/29 08:17:27;;;;;;;6.37;2.13;;;;;;;6.70;66.23;101211.03;5073761;28;20443;-70
2023/03/29 08:19:53;;;;;;;7.77;1.90;;;;;;;6.70;67.29;101204.84;5073183;28;20501;-70
2023/03/29 08:22:20;;;;;;;8.10;1.83;;;;;;;6.68;67.76;101201.56;5073721;28;20444;-70
2023/03/29 08:24:47;;;;;;;8.53;1.80;;;;;;;6.70;67.59;101200.25;5073764;28;20453;-70
2023/03/29 08:27:14;;;;;;;5.40;1.37;;;;;;;6.71;66.25;101198.38;5073737;28;20539;-70
2023/03/29 08:29:42;;;;;;;6.87;1.83;;;;;;;6.77;66.87;101192.78;5073341;28;20991;-70
2023/03/29 08:32:09;;;;;;;9.13;1.83;;;;;;;6.87;66.43;101186.63;5073343;28;20555;-70
2023/03/29 08:34:37;;;;;;;6.50;2.00;;;;;;;7.00;66.76;101179.97;5073551;28;20491;-70
2023/03/29 08:37:04;;;;;;;6.20;2.07;;;;;;;7.13;66.18;101182.19;5073563;28;20438;-70
2023/03/29 08:39:30;;;;;;;6.80;2.20;;;;;;;7.22;65.66;101175.22;5073442;28;20464;-70
2023/03/29 08:42:11;;;;;;;6.80;2.17;;;;;;;7.42;64.67;101173.66;5073252;28;20480;-70
2023/03/29 08:44:54;;;;;;;7.03;1.63;;;;;;;7.46;65.33;101175.53;5073690;28;20460;-70
2023/03/29 08:47:29;;;;;;;5.50;1.83;;;;;;;7.57;65.01;101171.81;5073471;28;20453;-69
2023/03/29 08:49:57;;;;;;;7.33;2.07;;;;;;;7.71;64.19;101174.00;5072863;28;20477;-70
2023/03/29 08:52:34;;;;;;;14.10;2.70;;;;;;;7.82;64.39;101162.94;5073372;28;20445;-69
2023/03/29 08:55:05;;;;;;;5.13;1.70;;;;;;;7.97;65.11;101164.00;5073400;28;20564;-70
2023/03/29 08:57:35;;;;;;;8.47;1.57;;;;;;;8.22;66.87;101166.72;5073073;28;20422;-69
2023/03/29 09:00:09;;;;;;;8.63;1.57;;;;;;;8.55;62.60;101165.38;5073253;28;20457;-70
2023/03/29 09:02:36;;;;;;;6.03;1.73;;;;;;;8.83;63.63;101160.44;5072999;28;20911;-70
2023/03/29 09:05:09;;;;;;;6.90;2.17;;;;;;;9.03;61.32;101159.56;5072888;28;20477;-70
2023/03/29 09:07:36;;;;;;;7.00;2.10;;;;;;;9.05;62.52;101165.50;5073245;28;20794;-70
2023/03/29 09:10:03;;;;;;;8.63;1.67;;;;;;;8.96;61.50;101164.47;5073024;28;20894;-70
2023/03/29 09:12:44;;;;;;;8.97;2.50;;;;;;;8.88;60.65;101162.31;5073220;28;20446;-70
2023/03/29 09:15:18;;;;;;;7.30;2.23;;;;;;;8.83;62.17;101160.44;5073188;28;20461;-70
2023/03/29 09:18:04;;;;;;;8.20;2.47;;;;;;;8.89;61.26;101167.44;5072865;28;20911;-70
2023/03/29 09:20:39;;;;;;;7.17;1.77;;;;;;;9.01;61.79;101167.94;5072641;28;20898;-70
2023/03/29 09:23:23;;;;;;;6.37;1.83;;;;;;;9.13;61.39;101159.53;5073101;28;20425;-69
2023/03/29 09:26:00;;;;;;;6.40;1.90;;;;;;;9.11;62.87;101161.69;5073183;28;20425;-70
2023/03/29 09:28:34;;;;;;;9.27;2.23;;;;;;;9.20;62.97;101153.81;5072708;28;20429;-70
2023/03/29 09:31:07;;;;;;;7.53;1.97;;;;;;;9.26;63.07;101158.94;5074300;28;20858;-70
2023/03/29 09:33:41;;;;;;;6.07;1.90;;;;;;;9.36;60.61;101160.75;5076757;28;20903;-70
2023/03/29 09:36:11;;;;;;;5.83;2.03;;;;;;;9.38;61.24;101163.97;5076907;28;20963;-70
2023/03/29 09:38:42;;;;;;;6.50;2.23;;;;;;;9.42;60.99;101151.53;5077091;28;20469;-70
2023/03/29 09:41:20;;;;;;;7.00;2.03;;;;;;;9.43;60.33;101149.63;5076835;28;20437;-70
2023/03/29 09:43:48;;;;;;;6.53;1.70;;;;;;;9.53;60.76;101150.41;5076955;28;20422;-70
2023/03/29 09:46:22;;;;;;;6.47;2.17;;;;;;;9.61;61.15;101149.00;5076716;28;20449;-70
2023/03/29 09:48:50;;;;;;;15.10;1.90;;;;;;;9.68;60.07;101154.88;5076477;28;20457;-70
2023/03/29 09:51:19;;;;;;;6.63;2.07;;;;;;;9.78;60.07;101152.13;5076337;28;20803;-70
2023/03/29 09:53:46;;;;;;;5.17;1.47;;;;;;;9.66;59.54;101148.97;5076648;28;20447;-70
2023/03/29 09:56:14;;;;;;;7.80;2.00;;;;;;;9.54;60.10;101148.50;5076143;28;20492;-70
2023/03/29 09:58:42;;;;;;;8.50;2.27;;;;;;;9.50;60.39;101147.44;5076501;28;20444;-70
2023/03/29 10:01:14;;;;;;;8.17;2.53;;;;;;;9.55;60.69;101140.09;5076207;28;20989;-70
2023/03/29 10:03:47;;;;;;;6.83;1.93;;;;;;;9.59;60.53;101143.06;5076493;28;20475;-70
2023/03/29 10:06:14;;;;;;;7.30;1.83;;;;;;;9.64;60.43;101134.09;5076522;28;20500;-70
2023/03/29 10:08:44;;;;;;;9.20;1.50;;;;;;;9.59;61.66;101133.03;5076305;28;20473;-70
2023/03/29 10:11:17;;;;;;;11.00;2.33;;;;;;;9.61;61.73;101130.06;5076402;28;20447;-70
2023/03/29 10:13:48;;;;;;;6.80;1.53;;;;;;;9.76;61.12;101118.31;5076406;28;20501;-70
2023/03/29 10:16:20;;;;;;;7.13;2.00;;;;;;;10.03;60.63;101110.53;5076187;28;20516;-70
2023/03/29 10:18:49;;;;;;;6.90;2.00;;;;;;;10.25;60.36;101120.91;5076096;28;20440;-70
2023/03/29 10:21:19;;;;;;;8.20;1.70;;;;;;;10.31;59.54;101110.81;5076102;28;20468;-70
2023/03/29 10:23:45;;;;;;;7.17;2.03;;;;;;;10.11;60.06;101109.09;5076110;28;20445;-70
2023/03/29 10:26:24;;;;;;;8.77;2.00;;;;;;;10.17;60.05;101104.44;5076126;28;20437;-70
2023/03/29 10:28:53;;;;;;;6.50;1.90;;;;;;;10.25;60.65;101103.84;5075985;28;20429;-70
2023/03/29 10:31:22;;;;;;;6.13;1.60;;;;;;;10.34;60.80;101107.56;5075840;28;20457;-70
2023/03/29 10:33:54;;;;;;;6.97;2.00;;;;;;;10.48;60.39;101097.66;5075892;28;20444;-70
2023/03/29 10:36:22;;;;;;;7.93;2.20;;;;;;;10.59;59.99;101099.16;5075815;28;20465;-70
2023/03/29 10:38:50;;;;;;;9.17;2.40;;;;;;;10.72;60.80;101094.97;5075782;28;20445;-69
2023/03/29 10:41:18;;;;;;;5.90;1.73;;;;;;;10.80;60.70;101097.03;5075152;28;20882;-70
2023/03/29 10:43:48;;;;;;;6.03;1.67;;;;;;;10.89;58.86;101090.94;5075528;28;20443;-70
2023/03/29 10:46:21;;;;;;;4.70;1.10;;;;;;;10.96;59.15;101096.81;5075721;28;20465;-70
2023/03/29 10:48:50;;;;;;;5.50;1.70;;;;;;;11.11;58.69;101088.47;5075020;28;20917;-70
2023/03/29 10:51:19;;;;;;;8.90;2.10;;;;;;;11.05;58.17;101079.63;5075658;28;20438;-70
2023/03/29 10:53:46;;;;;;;5.70;1.83;;;;;;;11.22;58.08;101084.53;5075156;28;20532;-70
2023/03/29 10:56:29;;;;;;;7.27;1.70;;;;;;;11.39;58.44;101077.81;5075321;28;20487;-70
2023/03/29 10:59:09;;;;;;;5.60;1.67;;;;;;;11.67;56.91;101068.66;5075249;28;20546;-69
2023/03/29 11:01:44;;;;;;;5.87;1.77;;;;;;;11.77;56.21;101073.91;5075422;28;20516;-69
2023/03/29 11:04:26;;;;;;;5.40;1.90;;;;;;;11.81;57.42;101068.72;5075231;28;20444;-69
2023/03/29 11:07:22;;;;;;;5.83;1.70;;;;;;;11.96;56.00;101075.84;5075269;28;20430;-70
2023/03/29 11:09:55;;;;;;;6.50;1.87;;;;;;;12.08;55.94;101074.22;5075134;28;20565;-70
2023/03/29 11:12:28;;;;;;;6.93;1.50;;;;;;;12.16;55.44;101072.75;5074842;28;20516;-70
2023/03/29 11:15:10;;;;;;;5.50;1.50;;;;;;;12.25;55.11;101079.09;5075096;28;20472;-70
2023/03/29 11:17:51;;;;;;;6.90;1.93;;;;;;;12.27;54.11;101082.31;5074718;28;20903;-70
2023/03/29 11:20:25;;;;;;;6.70;2.10;;;;;;;12.28;54.83;101062.19;5074529;28;20465;-70
2023/03/29 11:23:06;;;;;;;5.90;1.60;;;;;;;12.51;55.29;101067.75;5074646;28;20475;-70
2023/03/29 11:25:42;;;;;;;6.30;1.80;;;;;;;12.73;53.63;101070.56;5075050;28;20827;-70
2023/03/29 11:28:19;;;;;;;5.70;1.40;;;;;;;13.05;52.03;101064.16;5074797;28;20504;-70
2023/03/29 11:30:51;;;;;;;6.97;1.57;;;;;;;13.18;52.23;101059.78;5074471;28;20498;-70
2023/03/29 11:33:31;;;;;;;6.87;1.93;;;;;;;13.02;52.31;101055.81;5074756;28;20413;-70
2023/03/29 11:36:05;;;;;;;6.20;2.10;;;;;;;12.72;53.47;101049.94;5074257;28;20505;-70
2023/03/29 11:38:39;;;;;;;5.37;1.80;;;;;;;12.86;54.32;101058.06;5074623;28;20433;-70
2023/03/29 11:41:14;;;;;;;4.90;1.40;;;;;;;13.03;52.63;101057.44;5074332;28;20532;-69
2023/03/29 11:43:44;;;;;;;7.50;1.90;;;;;;;12.93;51.66;101054.94;5074264;28;20455;-70